Decoded Metar for VHHH (HONG KONG in HONG KONG) (IATA:HKG) | Meteo·Mobile Aviation Weather
aviador You're here:

VHHH Decoded Metar

HONG KONG in HONG KONG
Report Time2019-07-21 16:30:00
UTC Time2019-07-21 16:53:48
Flight Rules vfr VFR
WindVRB at 02 kt
Visibility9999 m
Phenomena:N/A
Clouds:Few 015 Hf
Expected CloudBase > 1,600 ft AGL from Temp-Dew spread
CeilingNone
Temp30°C (ISA +15)
Dew Point26°C (79% RH)
Heat Index37.4°C
QNH1006 hPa
Density Alt2,431 ft
Elevation30 ft
Report Wrong Elevation
Raw Report
METAR VHHH 211630Z VRB02KT 9999 FEW015 30/26 Q1006 NOSIG=

Extra information for VHHH:More info

Metar Taf Metar & Taf Last 4 Metars F.Rules Stats Wind Profile Meteogram Temp Stats Airport Information Weather charts Add Link Nearby VenuesMetar ALERT Operation Metar Decoded Social comments